sensor_id;sensor_type;location;lat;lon;timestamp;pressure;altitude;pressure_sealevel;temperature;humidity
62976;BME280;49071;0.000;0.000;2023-12-20T00:01:39;100335.41;;;18.20;
62976;BME280;49071;0.000;0.000;2023-12-20T00:04:39;100329.41;;;18.29;
62976;BME280;49071;0.000;0.000;2023-12-20T00:07:40;100331.28;;;18.38;
62976;BME280;49071;0.000;0.000;2023-12-20T00:10:40;100328.59;;;18.49;
62976;BME280;49071;0.000;0.000;2023-12-20T00:13:40;100315.53;;;18.58;
62976;BME280;49071;0.000;0.000;2023-12-20T00:16:40;100323.81;;;18.63;
62976;BME280;49071;0.000;0.000;2023-12-20T00:19:41;100308.66;;;18.67;
62976;BME280;49071;0.000;0.000;2023-12-20T00:22:41;100313.91;;;18.67;
62976;BME280;49071;0.000;0.000;2023-12-20T00:25:41;100309.53;;;18.67;
62976;BME280;49071;0.000;0.000;2023-12-20T00:28:41;100313.91;;;18.67;
62976;BME280;49071;0.000;0.000;2023-12-20T00:31:42;100314.19;;;18.64;
62976;BME280;49071;0.000;0.000;2023-12-20T00:34:43;100319.69;;;18.61;
62976;BME280;49071;0.000;0.000;2023-12-20T00:37:43;100309.75;;;18.55;
62976;BME280;49071;0.000;0.000;2023-12-20T00:40:43;100308.88;;;18.54;
62976;BME280;49071;0.000;0.000;2023-12-20T00:43:43;100309.28;;;18.50;
62976;BME280;49071;0.000;0.000;2023-12-20T00:46:44;100316.56;;;18.46;
62976;BME280;49071;0.000;0.000;2023-12-20T00:49:44;100309.94;;;18.43;
62976;BME280;49071;0.000;0.000;2023-12-20T00:52:44;100304.81;;;18.41;
62976;BME280;49071;0.000;0.000;2023-12-20T00:55:45;100304.38;;;18.36;
62976;BME280;49071;0.000;0.000;2023-12-20T00:58:45;100300.25;;;18.34;
62976;BME280;49071;0.000;0.000;2023-12-20T01:01:45;100300.50;;;18.31;
62976;BME280;49071;0.000;0.000;2023-12-20T01:04:45;100291.09;;;18.28;
62976;BME280;49071;0.000;0.000;2023-12-20T01:07:45;100294.81;;;18.26;
62976;BME280;49071;0.000;0.000;2023-12-20T01:10:46;100293.53;;;18.20;
62976;BME280;49071;0.000;0.000;2023-12-20T01:13:46;100295.47;;;18.18;
62976;BME280;49071;0.000;0.000;2023-12-20T01:16:47;100300.94;;;18.16;
62976;BME280;49071;0.000;0.000;2023-12-20T01:19:47;100303.81;;;18.13;
62976;BME280;49071;0.000;0.000;2023-12-20T01:22:47;100297.06;;;18.10;
62976;BME280;49071;0.000;0.000;2023-12-20T01:25:48;100293.88;;;18.07;
62976;BME280;49071;0.000;0.000;2023-12-20T01:28:48;100290.53;;;18.05;
62976;BME280;49071;0.000;0.000;2023-12-20T01:31:48;100291.59;;;18.02;
62976;BME280;49071;0.000;0.000;2023-12-20T01:34:48;100283.97;;;17.99;
62976;BME280;49071;0.000;0.000;2023-12-20T01:37:48;100287.72;;;17.97;
62976;BME280;49071;0.000;0.000;2023-12-20T01:40:49;100281.75;;;17.95;
62976;BME280;49071;0.000;0.000;2023-12-20T01:43:49;100275.94;;;17.91;
62976;BME280;49071;0.000;0.000;2023-12-20T01:46:49;100272.63;;;17.89;
62976;BME280;49071;0.000;0.000;2023-12-20T01:49:49;100265.84;;;17.87;
62976;BME280;49071;0.000;0.000;2023-12-20T01:52:50;100270.41;;;17.85;
62976;BME280;49071;0.000;0.000;2023-12-20T01:55:52;100275.75;;;17.84;
62976;BME280;49071;0.000;0.000;2023-12-20T01:58:54;100270.66;;;17.82;
62976;BME280;49071;0.000;0.000;2023-12-20T02:01:54;100273.94;;;17.84;
62976;BME280;49071;0.000;0.000;2023-12-20T02:04:55;100274.41;;;17.89;
62976;BME280;49071;0.000;0.000;2023-12-20T02:07:55;100268.66;;;17.95;
62976;BME280;49071;0.000;0.000;2023-12-20T02:10:55;100261.28;;;18.00;
62976;BME280;49071;0.000;0.000;2023-12-20T02:13:56;100261.47;;;18.08;
62976;BME280;49071;0.000;0.000;2023-12-20T02:16:56;100248.59;;;18.16;
62976;BME280;49071;0.000;0.000;2023-12-20T02:19:56;100251.25;;;18.25;
62976;BME280;49071;0.000;0.000;2023-12-20T02:22:56;100246.19;;;18.33;
62976;BME280;49071;0.000;0.000;2023-12-20T02:25:56;100247.91;;;18.43;
62976;BME280;49071;0.000;0.000;2023-12-20T02:28:56;100249.47;;;18.55;
62976;BME280;49071;0.000;0.000;2023-12-20T02:31:57;100248.41;;;18.67;
62976;BME280;49071;0.000;0.000;2023-12-20T02:34:57;100245.53;;;18.70;
62976;BME280;49071;0.000;0.000;2023-12-20T02:37:57;100241.97;;;18.71;
62976;BME280;49071;0.000;0.000;2023-12-20T02:40:58;100249.00;;;18.70;
62976;BME280;49071;0.000;0.000;2023-12-20T02:43:58;100237.81;;;18.68;
62976;BME280;49071;0.000;0.000;2023-12-20T02:46:58;100235.59;;;18.64;
62976;BME280;49071;0.000;0.000;2023-12-20T02:49:58;100243.72;;;18.61;
62976;BME280;49071;0.000;0.000;2023-12-20T02:52:58;100242.19;;;18.58;
62976;BME280;49071;0.000;0.000;2023-12-20T02:55:58;100246.16;;;18.53;
62976;BME280;49071;0.000;0.000;2023-12-20T02:58:59;100242.00;;;18.50;
62976;BME280;49071;0.000;0.000;2023-12-20T03:01:59;100240.72;;;18.45;
62976;BME280;49071;0.000;0.000;2023-12-20T03:04:59;100243.63;;;18.42;
62976;BME280;49071;0.000;0.000;2023-12-20T03:08:00;100237.97;;;18.37;
62976;BME280;49071;0.000;0.000;2023-12-20T03:11:00;100241.66;;;18.35;
62976;BME280;49071;0.000;0.000;2023-12-20T03:14:00;100225.50;;;18.30;
62976;BME280;49071;0.000;0.000;2023-12-20T03:17:00;100235.28;;;18.28;
62976;BME280;49071;0.000;0.000;2023-12-20T03:20:01;100238.28;;;18.23;
62976;BME280;49071;0.000;0.000;2023-12-20T03:23:01;100250.81;;;18.20;
62976;BME280;49071;0.000;0.000;2023-12-20T03:26:01;100242.38;;;18.17;
62976;BME280;49071;0.000;0.000;2023-12-20T03:29:01;100241.00;;;18.13;
62976;BME280;49071;0.000;0.000;2023-12-20T03:32:01;100235.88;;;18.11;
62976;BME280;49071;0.000;0.000;2023-12-20T03:35:02;100234.47;;;18.07;
62976;BME280;49071;0.000;0.000;2023-12-20T03:38:02;100245.22;;;18.04;
62976;BME280;49071;0.000;0.000;2023-12-20T03:41:02;100247.13;;;18.02;
62976;BME280;49071;0.000;0.000;2023-12-20T03:44:03;100255.34;;;17.98;
62976;BME280;49071;0.000;0.000;2023-12-20T03:47:03;100252.00;;;17.96;
62976;BME280;49071;0.000;0.000;2023-12-20T03:50:03;100257.50;;;17.93;
62976;BME280;49071;0.000;0.000;2023-12-20T03:53:03;100254.63;;;17.96;
62976;BME280;49071;0.000;0.000;2023-12-20T03:56:04;100257.81;;;17.99;
62976;BME280;49071;0.000;0.000;2023-12-20T03:59:04;100261.75;;;18.05;
62976;BME280;49071;0.000;0.000;2023-12-20T04:02:04;100256.00;;;18.11;
62976;BME280;49071;0.000;0.000;2023-12-20T04:05:05;100257.00;;;18.19;
62976;BME280;49071;0.000;0.000;2023-12-20T04:08:05;100263.94;;;18.29;
62976;BME280;49071;0.000;0.000;2023-12-20T04:11:05;100253.66;;;18.37;
62976;BME280;49071;0.000;0.000;2023-12-20T04:14:06;100250.94;;;18.48;
62976;BME280;49071;0.000;0.000;2023-12-20T04:17:07;100251.59;;;18.61;
62976;BME280;49071;0.000;0.000;2023-12-20T04:20:07;100255.06;;;18.71;
62976;BME280;49071;0.000;0.000;2023-12-20T04:23:07;100250.50;;;18.73;
62976;BME280;49071;0.000;0.000;2023-12-20T04:26:08;100240.72;;;18.74;
62976;BME280;49071;0.000;0.000;2023-12-20T04:29:09;100238.09;;;18.74;
62976;BME280;49071;0.000;0.000;2023-12-20T04:32:09;100242.63;;;18.73;
62976;BME280;49071;0.000;0.000;2023-12-20T04:35:09;100235.91;;;18.70;
62976;BME280;49071;0.000;0.000;2023-12-20T04:38:09;100245.78;;;18.67;
62976;BME280;49071;0.000;0.000;2023-12-20T04:41:09;100233.09;;;18.62;
62976;BME280;49071;0.000;0.000;2023-12-20T04:44:10;100230.88;;;18.58;
62976;BME280;49071;0.000;0.000;2023-12-20T04:47:10;100237.47;;;18.52;
62976;BME280;49071;0.000;0.000;2023-12-20T04:50:10;100241.31;;;18.48;
62976;BME280;49071;0.000;0.000;2023-12-20T04:53:13;100223.38;;;18.44;
62976;BME280;49071;0.000;0.000;2023-12-20T04:56:13;100229.94;;;18.39;
62976;BME280;49071;0.000;0.000;2023-12-20T04:59:13;100234.63;;;18.35;
62976;BME280;49071;0.000;0.000;2023-12-20T05:02:13;100235.03;;;18.31;
62976;BME280;49071;0.000;0.000;2023-12-20T05:05:13;100231.84;;;18.27;
62976;BME280;49071;0.000;0.000;2023-12-20T05:08:15;100222.72;;;18.22;
62976;BME280;49071;0.000;0.000;2023-12-20T05:11:15;100218.56;;;18.19;
62976;BME280;49071;0.000;0.000;2023-12-20T05:14:15;100221.44;;;18.17;
62976;BME280;49071;0.000;0.000;2023-12-20T05:17:16;100216.47;;;18.14;
62976;BME280;49071;0.000;0.000;2023-12-20T05:20:17;100214.09;;;18.11;
62976;BME280;49071;0.000;0.000;2023-12-20T05:23:17;100218.78;;;18.07;
62976;BME280;49071;0.000;0.000;2023-12-20T05:26:17;100217.38;;;18.03;
62976;BME280;49071;0.000;0.000;2023-12-20T05:29:17;100211.53;;;18.00;
62976;BME280;49071;0.000;0.000;2023-12-20T05:32:17;100211.81;;;17.97;
62976;BME280;49071;0.000;0.000;2023-12-20T05:35:17;100219.06;;;17.93;
62976;BME280;49071;0.000;0.000;2023-12-20T05:38:19;100218.38;;;17.91;
62976;BME280;49071;0.000;0.000;2023-12-20T05:41:19;100220.44;;;17.88;
62976;BME280;49071;0.000;0.000;2023-12-20T05:44:19;100224.13;;;17.86;
62976;BME280;49071;0.000;0.000;2023-12-20T05:47:19;100224.22;;;17.84;
62976;BME280;49071;0.000;0.000;2023-12-20T05:50:19;100215.56;;;17.84;
62976;BME280;49071;0.000;0.000;2023-12-20T05:53:19;100221.63;;;17.84;
62976;BME280;49071;0.000;0.000;2023-12-20T05:56:20;100226.59;;;17.87;
62976;BME280;49071;0.000;0.000;2023-12-20T05:59:20;100234.66;;;17.95;
62976;BME280;49071;0.000;0.000;2023-12-20T06:02:20;100232.25;;;18.03;
62976;BME280;49071;0.000;0.000;2023-12-20T06:05:20;100228.03;;;18.11;
62976;BME280;49071;0.000;0.000;2023-12-20T06:08:20;100227.38;;;18.18;
62976;BME280;49071;0.000;0.000;2023-12-20T06:11:21;100227.28;;;18.29;
62976;BME280;49071;0.000;0.000;2023-12-20T06:14:21;100225.41;;;18.41;
62976;BME280;49071;0.000;0.000;2023-12-20T06:17:21;100224.38;;;18.52;
62976;BME280;49071;0.000;0.000;2023-12-20T06:20:21;100234.47;;;18.66;
62976;BME280;49071;0.000;0.000;2023-12-20T06:23:22;100228.72;;;18.72;
62976;BME280;49071;0.000;0.000;2023-12-20T06:26:22;100222.13;;;18.77;
62976;BME280;49071;0.000;0.000;2023-12-20T06:29:22;100219.41;;;18.88;
62976;BME280;49071;0.000;0.000;2023-12-20T06:32:22;100219.19;;;19.01;
62976;BME280;49071;0.000;0.000;2023-12-20T06:35:23;100219.19;;;19.10;
62976;BME280;49071;0.000;0.000;2023-12-20T06:38:24;100220.31;;;19.26;
62976;BME280;49071;0.000;0.000;2023-12-20T06:41:24;100215.91;;;19.36;
62976;BME280;49071;0.000;0.000;2023-12-20T06:44:24;100222.25;;;19.52;
62976;BME280;49071;0.000;0.000;2023-12-20T06:47:24;100212.88;;;19.59;
62976;BME280;49071;0.000;0.000;2023-12-20T06:50:25;100214.50;;;19.69;
62976;BME280;49071;0.000;0.000;2023-12-20T06:53:25;100215.91;;;19.83;
62976;BME280;49071;0.000;0.000;2023-12-20T06:56:25;100221.25;;;20.00;
62976;BME280;49071;0.000;0.000;2023-12-20T06:59:25;100223.06;;;19.99;
62976;BME280;49071;0.000;0.000;2023-12-20T07:02:26;100226.22;;;20.03;
62976;BME280;49071;0.000;0.000;2023-12-20T07:05:29;100228.44;;;20.07;
62976;BME280;49071;0.000;0.000;2023-12-20T07:08:29;100237.28;;;20.06;
62976;BME280;49071;0.000;0.000;2023-12-20T07:11:29;100230.50;;;20.04;
62976;BME280;49071;0.000;0.000;2023-12-20T07:14:29;100233.84;;;19.96;
62976;BME280;49071;0.000;0.000;2023-12-20T07:17:29;100230.81;;;19.91;
62976;BME280;49071;0.000;0.000;2023-12-20T07:20:30;100233.88;;;19.87;
62976;BME280;49071;0.000;0.000;2023-12-20T07:23:30;100241.88;;;19.76;
62976;BME280;49071;0.000;0.000;2023-12-20T07:26:30;100241.03;;;19.66;
62976;BME280;49071;0.000;0.000;2023-12-20T07:29:30;100242.66;;;19.58;
62976;BME280;49071;0.000;0.000;2023-12-20T07:32:30;100233.59;;;19.53;
62976;BME280;49071;0.000;0.000;2023-12-20T07:35:32;100238.97;;;19.51;
62976;BME280;49071;0.000;0.000;2023-12-20T07:38:32;100220.03;;;19.57;
62976;BME280;49071;0.000;0.000;2023-12-20T07:41:32;100225.72;;;19.62;
62976;BME280;49071;0.000;0.000;2023-12-20T07:44:32;100229.44;;;19.69;
62976;BME280;49071;0.000;0.000;2023-12-20T07:47:32;100217.44;;;19.76;
62976;BME280;49071;0.000;0.000;2023-12-20T07:50:33;100214.25;;;19.82;
62976;BME280;49071;0.000;0.000;2023-12-20T07:53:33;100222.91;;;19.91;
62976;BME280;49071;0.000;0.000;2023-12-20T07:56:33;100216.00;;;20.00;
62976;BME280;49071;0.000;0.000;2023-12-20T07:59:33;100214.06;;;20.11;
62976;BME280;49071;0.000;0.000;2023-12-20T08:02:33;100219.81;;;20.24;
62976;BME280;49071;0.000;0.000;2023-12-20T08:05:34;100219.66;;;20.35;
62976;BME280;49071;0.000;0.000;2023-12-20T08:08:34;100220.56;;;20.43;
62976;BME280;49071;0.000;0.000;2023-12-20T08:11:34;100215.59;;;20.40;
62976;BME280;49071;0.000;0.000;2023-12-20T08:14:34;100223.47;;;20.40;
62976;BME280;49071;0.000;0.000;2023-12-20T08:17:35;100222.41;;;20.33;
62976;BME280;49071;0.000;0.000;2023-12-20T08:20:35;100233.78;;;20.24;
62976;BME280;49071;0.000;0.000;2023-12-20T08:23:35;100229.25;;;20.17;
62976;BME280;49071;0.000;0.000;2023-12-20T08:26:35;100222.50;;;20.05;
62976;BME280;49071;0.000;0.000;2023-12-20T08:29:35;100230.25;;;19.97;
62976;BME280;49071;0.000;0.000;2023-12-20T08:32:35;100225.00;;;19.88;
62976;BME280;49071;0.000;0.000;2023-12-20T08:35:36;100213.56;;;19.80;
62976;BME280;49071;0.000;0.000;2023-12-20T08:38:36;100202.91;;;19.72;
62976;BME280;49071;0.000;0.000;2023-12-20T08:41:36;100209.81;;;19.63;
62976;BME280;49071;0.000;0.000;2023-12-20T08:44:37;100209.69;;;19.56;
62976;BME280;49071;0.000;0.000;2023-12-20T08:47:37;100202.22;;;19.51;
62976;BME280;49071;0.000;0.000;2023-12-20T08:50:37;100206.81;;;19.49;
62976;BME280;49071;0.000;0.000;2023-12-20T08:53:38;100203.31;;;19.49;
62976;BME280;49071;0.000;0.000;2023-12-20T08:56:39;100214.25;;;19.54;
62976;BME280;49071;0.000;0.000;2023-12-20T08:59:39;100204.28;;;19.57;
62976;BME280;49071;0.000;0.000;2023-12-20T09:02:39;100204.44;;;19.65;
62976;BME280;49071;0.000;0.000;2023-12-20T09:05:39;100206.50;;;19.71;
62976;BME280;49071;0.000;0.000;2023-12-20T09:08:39;100204.84;;;19.79;
62976;BME280;49071;0.000;0.000;2023-12-20T09:11:40;100210.34;;;19.86;
62976;BME280;49071;0.000;0.000;2023-12-20T09:14:40;100206.75;;;19.96;
62976;BME280;49071;0.000;0.000;2023-12-20T09:17:41;100210.63;;;20.01;
62976;BME280;49071;0.000;0.000;2023-12-20T09:20:41;100201.91;;;20.10;
62976;BME280;49071;0.000;0.000;2023-12-20T09:23:41;100210.56;;;20.20;
62976;BME280;49071;0.000;0.000;2023-12-20T09:26:42;100203.31;;;20.31;
62976;BME280;49071;0.000;0.000;2023-12-20T09:29:44;100205.81;;;20.33;
62976;BME280;49071;0.000;0.000;2023-12-20T09:32:45;100187.44;;;20.33;
62976;BME280;49071;0.000;0.000;2023-12-20T09:35:45;100184.28;;;20.29;
62976;BME280;49071;0.000;0.000;2023-12-20T09:38:45;100186.50;;;20.24;
62976;BME280;49071;0.000;0.000;2023-12-20T09:41:49;100163.31;;;20.20;
62976;BME280;49071;0.000;0.000;2023-12-20T09:44:51;100170.22;;;20.12;
62976;BME280;49071;0.000;0.000;2023-12-20T09:47:54;100161.41;;;20.03;
62976;BME280;49071;0.000;0.000;2023-12-20T09:50:55;100155.09;;;19.96;
62976;BME280;49071;0.000;0.000;2023-12-20T09:53:55;100151.50;;;19.88;
62976;BME280;49071;0.000;0.000;2023-12-20T09:56:57;100131.75;;;19.84;
62976;BME280;49071;0.000;0.000;2023-12-20T09:59:57;100152.59;;;19.86;
62976;BME280;49071;0.000;0.000;2023-12-20T10:02:58;100155.66;;;19.81;
62976;BME280;49071;0.000;0.000;2023-12-20T10:05:58;100156.41;;;19.74;
62976;BME280;49071;0.000;0.000;2023-12-20T10:08:58;100152.06;;;19.63;
62976;BME280;49071;0.000;0.000;2023-12-20T10:11:59;100144.91;;;19.56;
62976;BME280;49071;0.000;0.000;2023-12-20T10:14:59;100136.25;;;19.46;
62976;BME280;49071;0.000;0.000;2023-12-20T10:18:00;100134.19;;;19.40;
62976;BME280;49071;0.000;0.000;2023-12-20T10:21:00;100137.75;;;19.39;
62976;BME280;49071;0.000;0.000;2023-12-20T10:24:00;100124.50;;;19.41;
62976;BME280;49071;0.000;0.000;2023-12-20T10:27:01;100128.66;;;19.43;
62976;BME280;49071;0.000;0.000;2023-12-20T10:30:03;100138.44;;;19.51;
62976;BME280;49071;0.000;0.000;2023-12-20T10:33:07;100123.94;;;19.56;
62976;BME280;49071;0.000;0.000;2023-12-20T10:36:08;100110.09;;;19.63;
62976;BME280;49071;0.000;0.000;2023-12-20T10:39:09;100095.44;;;19.70;
62976;BME280;49071;0.000;0.000;2023-12-20T10:42:11;100107.88;;;19.78;
62976;BME280;49071;0.000;0.000;2023-12-20T10:45:12;100100.97;;;19.86;
62976;BME280;49071;0.000;0.000;2023-12-20T10:48:12;100083.09;;;19.99;
62976;BME280;49071;0.000;0.000;2023-12-20T10:51:13;100079.44;;;20.09;
62976;BME280;49071;0.000;0.000;2023-12-20T10:54:14;100066.25;;;20.19;
62976;BME280;49071;0.000;0.000;2023-12-20T10:57:14;100078.91;;;20.32;
62976;BME280;49071;0.000;0.000;2023-12-20T11:00:17;100076.75;;;20.45;
62976;BME280;49071;0.000;0.000;2023-12-20T11:03:17;100076.59;;;20.47;
62976;BME280;49071;0.000;0.000;2023-12-20T11:09:39;100065.72;;;20.42;
62976;BME280;49071;0.000;0.000;2023-12-20T11:12:46;100050.53;;;20.36;
62976;BME280;49071;0.000;0.000;2023-12-20T11:15:47;100055.69;;;20.28;
62976;BME280;49071;0.000;0.000;2023-12-20T11:18:48;100049.53;;;20.20;
62976;BME280;49071;0.000;0.000;2023-12-20T11:21:50;100042.66;;;20.09;
62976;BME280;49071;0.000;0.000;2023-12-20T11:24:51;100038.97;;;20.02;
62976;BME280;49071;0.000;0.000;2023-12-20T11:28:07;100031.69;;;19.96;
62976;BME280;49071;0.000;0.000;2023-12-20T11:31:08;100025.50;;;19.88;
62976;BME280;49071;0.000;0.000;2023-12-20T11:34:14;100029.84;;;19.80;
62976;BME280;49071;0.000;0.000;2023-12-20T11:37:17;100015.63;;;19.73;
62976;BME280;49071;0.000;0.000;2023-12-20T11:40:19;100019.75;;;19.66;
62976;BME280;49071;0.000;0.000;2023-12-20T11:43:31;100012.63;;;19.59;
62976;BME280;49071;0.000;0.000;2023-12-20T11:46:34;100002.69;;;19.53;
62976;BME280;49071;0.000;0.000;2023-12-20T11:49:34;100000.66;;;19.47;
62976;BME280;49071;0.000;0.000;2023-12-20T11:52:35;100011.13;;;19.47;
62976;BME280;49071;0.000;0.000;2023-12-20T11:55:35;99996.22;;;19.47;
62976;BME280;49071;0.000;0.000;2023-12-20T11:58:36;99994.00;;;19.52;
62976;BME280;49071;0.000;0.000;2023-12-20T12:01:36;99984.19;;;19.54;
62976;BME280;49071;0.000;0.000;2023-12-20T12:04:37;99973.09;;;19.60;
62976;BME280;49071;0.000;0.000;2023-12-20T12:07:37;99972.53;;;19.66;
62976;BME280;49071;0.000;0.000;2023-12-20T12:10:37;99971.69;;;19.75;
62976;BME280;49071;0.000;0.000;2023-12-20T12:13:38;99963.06;;;19.82;
62976;BME280;49071;0.000;0.000;2023-12-20T12:16:38;99956.00;;;19.92;
62976;BME280;49071;0.000;0.000;2023-12-20T12:19:39;99938.91;;;20.05;
62976;BME280;49071;0.000;0.000;2023-12-20T12:22:39;99937.34;;;20.12;
62976;BME280;49071;0.000;0.000;2023-12-20T12:25:39;99932.53;;;20.25;
62976;BME280;49071;0.000;0.000;2023-12-20T12:28:40;99935.25;;;20.33;
62976;BME280;49071;0.000;0.000;2023-12-20T12:31:41;99923.16;;;20.40;
62976;BME280;49071;0.000;0.000;2023-12-20T12:34:41;99895.59;;;20.44;
62976;BME280;49071;0.000;0.000;2023-12-20T12:37:42;99901.84;;;20.43;
62976;BME280;49071;0.000;0.000;2023-12-20T12:40:43;99885.56;;;20.39;
62976;BME280;49071;0.000;0.000;2023-12-20T12:43:43;99885.34;;;20.33;
62976;BME280;49071;0.000;0.000;2023-12-20T12:46:44;99876.56;;;20.24;
62976;BME280;49071;0.000;0.000;2023-12-20T12:49:45;99871.09;;;20.18;
62976;BME280;49071;0.000;0.000;2023-12-20T12:52:45;99875.59;;;20.08;
62976;BME280;49071;0.000;0.000;2023-12-20T12:55:45;99864.69;;;20.03;
62976;BME280;49071;0.000;0.000;2023-12-20T12:58:45;99871.00;;;19.93;
62976;BME280;49071;0.000;0.000;2023-12-20T13:01:45;99860.28;;;19.87;
62976;BME280;49071;0.000;0.000;2023-12-20T13:04:46;99847.06;;;19.79;
62976;BME280;49071;0.000;0.000;2023-12-20T13:07:46;99855.66;;;19.71;
62976;BME280;49071;0.000;0.000;2023-12-20T13:10:46;99834.44;;;19.65;
62976;BME280;49071;0.000;0.000;2023-12-20T13:13:46;99838.31;;;19.61;
62976;BME280;49071;0.000;0.000;2023-12-20T13:16:47;99846.75;;;19.55;
62976;BME280;49071;0.000;0.000;2023-12-20T13:19:47;99838.25;;;19.53;
62976;BME280;49071;0.000;0.000;2023-12-20T13:22:47;99828.41;;;19.55;
62976;BME280;49071;0.000;0.000;2023-12-20T13:25:47;99849.09;;;19.58;
62976;BME280;49071;0.000;0.000;2023-12-20T13:28:48;99839.97;;;19.62;
62976;BME280;49071;0.000;0.000;2023-12-20T13:31:48;99830.53;;;19.69;
62976;BME280;49071;0.000;0.000;2023-12-20T13:34:49;99821.94;;;19.76;
62976;BME280;49071;0.000;0.000;2023-12-20T13:37:49;99814.97;;;19.85;
62976;BME280;49071;0.000;0.000;2023-12-20T13:40:50;99810.25;;;20.05;
62976;BME280;49071;0.000;0.000;2023-12-20T13:43:50;99797.31;;;20.29;
62976;BME280;49071;0.000;0.000;2023-12-20T13:46:50;99796.38;;;20.55;
62976;BME280;49071;0.000;0.000;2023-12-20T13:49:51;99803.41;;;20.79;
62976;BME280;49071;0.000;0.000;2023-12-20T13:52:51;99799.06;;;20.63;
62976;BME280;49071;0.000;0.000;2023-12-20T13:55:51;99799.00;;;20.55;
62976;BME280;49071;0.000;0.000;2023-12-20T13:58:51;99790.50;;;20.44;
62976;BME280;49071;0.000;0.000;2023-12-20T14:01:51;99778.31;;;20.35;
62976;BME280;49071;0.000;0.000;2023-12-20T14:04:52;99782.53;;;20.28;
62976;BME280;49071;0.000;0.000;2023-12-20T14:07:52;99797.25;;;20.21;
62976;BME280;49071;0.000;0.000;2023-12-20T14:10:52;99786.00;;;20.11;
62976;BME280;49071;0.000;0.000;2023-12-20T14:13:53;99797.25;;;20.04;
62976;BME280;49071;0.000;0.000;2023-12-20T14:16:57;99806.59;;;19.98;
62976;BME280;49071;0.000;0.000;2023-12-20T14:19:57;99809.13;;;19.91;
62976;BME280;49071;0.000;0.000;2023-12-20T14:22:57;99830.72;;;19.85;
62976;BME280;49071;0.000;0.000;2023-12-20T14:25:58;99850.09;;;19.84;
62976;BME280;49071;0.000;0.000;2023-12-20T14:28:58;99870.16;;;19.75;
62976;BME280;49071;0.000;0.000;2023-12-20T14:31:58;99880.56;;;19.67;
62976;BME280;49071;0.000;0.000;2023-12-20T14:34:59;99882.09;;;19.61;
62976;BME280;49071;0.000;0.000;2023-12-20T14:38:00;99891.38;;;19.55;
62976;BME280;49071;0.000;0.000;2023-12-20T14:41:00;99888.66;;;19.47;
62976;BME280;49071;0.000;0.000;2023-12-20T14:44:03;99883.72;;;19.44;
62976;BME280;49071;0.000;0.000;2023-12-20T14:47:04;99883.72;;;19.44;
62976;BME280;49071;0.000;0.000;2023-12-20T14:50:05;99899.16;;;19.47;
62976;BME280;49071;0.000;0.000;2023-12-20T14:53:06;99901.34;;;19.52;
62976;BME280;49071;0.000;0.000;2023-12-20T14:56:07;99892.22;;;19.56;
62976;BME280;49071;0.000;0.000;2023-12-20T14:59:07;99891.47;;;19.63;
62976;BME280;49071;0.000;0.000;2023-12-20T15:02:08;99895.16;;;19.70;
62976;BME280;49071;0.000;0.000;2023-12-20T15:05:08;99892.66;;;19.78;
62976;BME280;49071;0.000;0.000;2023-12-20T15:08:08;99897.03;;;19.87;
62976;BME280;49071;0.000;0.000;2023-12-20T15:11:10;99894.47;;;19.94;
62976;BME280;49071;0.000;0.000;2023-12-20T15:14:11;99889.16;;;20.04;
62976;BME280;49071;0.000;0.000;2023-12-20T15:17:11;99900.28;;;20.15;
62976;BME280;49071;0.000;0.000;2023-12-20T15:20:11;99898.09;;;20.28;
62976;BME280;49071;0.000;0.000;2023-12-20T15:23:11;99906.50;;;20.31;
62976;BME280;49071;0.000;0.000;2023-12-20T15:26:12;99916.56;;;20.36;
62976;BME280;49071;0.000;0.000;2023-12-20T15:29:12;99922.13;;;20.33;
62976;BME280;49071;0.000;0.000;2023-12-20T15:32:13;99915.81;;;20.26;
62976;BME280;49071;0.000;0.000;2023-12-20T15:35:13;99931.19;;;20.21;
62976;BME280;49071;0.000;0.000;2023-12-20T15:38:13;99919.47;;;20.16;
62976;BME280;49071;0.000;0.000;2023-12-20T15:41:20;99919.25;;;20.09;
62976;BME280;49071;0.000;0.000;2023-12-20T15:44:20;99908.50;;;20.03;
62976;BME280;49071;0.000;0.000;2023-12-20T15:47:22;99908.16;;;19.98;
62976;BME280;49071;0.000;0.000;2023-12-20T15:50:22;99906.13;;;19.92;
62976;BME280;49071;0.000;0.000;2023-12-20T15:53:22;99904.22;;;19.85;
62976;BME280;49071;0.000;0.000;2023-12-20T15:56:22;99916.59;;;19.75;
62976;BME280;49071;0.000;0.000;2023-12-20T15:59:23;99917.88;;;19.62;
62976;BME280;49071;0.000;0.000;2023-12-20T16:02:23;99933.34;;;19.55;
62976;BME280;49071;0.000;0.000;2023-12-20T16:05:23;99930.63;;;19.47;
62976;BME280;49071;0.000;0.000;2023-12-20T16:08:23;99936.47;;;19.41;
62976;BME280;49071;0.000;0.000;2023-12-20T16:11:23;99937.00;;;19.45;
62976;BME280;49071;0.000;0.000;2023-12-20T16:14:24;99946.63;;;19.54;
62976;BME280;49071;0.000;0.000;2023-12-20T16:17:26;99932.69;;;19.53;
62976;BME280;49071;0.000;0.000;2023-12-20T16:20:27;99935.03;;;19.56;
62976;BME280;49071;0.000;0.000;2023-12-20T16:23:27;99923.25;;;19.60;
62976;BME280;49071;0.000;0.000;2023-12-20T16:26:27;99924.47;;;19.75;
62976;BME280;49071;0.000;0.000;2023-12-20T16:29:28;99919.97;;;19.85;
62976;BME280;49071;0.000;0.000;2023-12-20T16:32:28;99916.34;;;19.86;
62976;BME280;49071;0.000;0.000;2023-12-20T16:35:28;99928.91;;;19.91;
62976;BME280;49071;0.000;0.000;2023-12-20T16:38:28;99924.56;;;20.00;
62976;BME280;49071;0.000;0.000;2023-12-20T16:41:28;99934.09;;;20.18;
62976;BME280;49071;0.000;0.000;2023-12-20T16:44:28;99941.50;;;20.32;
62976;BME280;49071;0.000;0.000;2023-12-20T16:47:29;99944.16;;;20.40;
62976;BME280;49071;0.000;0.000;2023-12-20T16:50:29;99948.41;;;20.50;
62976;BME280;49071;0.000;0.000;2023-12-20T16:53:29;99938.31;;;20.46;
62976;BME280;49071;0.000;0.000;2023-12-20T16:56:29;99936.97;;;20.42;
62976;BME280;49071;0.000;0.000;2023-12-20T16:59:29;99955.06;;;20.45;
62976;BME280;49071;0.000;0.000;2023-12-20T17:02:30;99947.31;;;20.43;
62976;BME280;49071;0.000;0.000;2023-12-20T17:05:30;99957.91;;;20.34;
62976;BME280;49071;0.000;0.000;2023-12-20T17:08:30;99961.41;;;20.25;
62976;BME280;49071;0.000;0.000;2023-12-20T17:11:32;99958.72;;;20.17;